Time;durP1;ratioP1;P1;durP2;ratioP2;P2;SDS_P1;SDS_P2;PMS_P1;PMS_P2;Temp;Humidity;BMP_temperature;BMP_pressure;BME280_temperature;BME280_humidity;BME280_pressure;Samples;Min_cycle;Max_cycle;Signal;HPM_P1;HPM_P2
2023/03/31 00:00:24;;;;;;;11.20;10.50;;;;;;;;;;4995063;28;20058;-48
2023/03/31 00:02:53;;;;;;;11.48;10.77;;;;;;;;;;4993145;28;20042;-48
2023/03/31 00:05:20;;;;;;;12.68;11.88;;;;;;;;;;4993686;28;20096;-54
2023/03/31 00:07:47;;;;;;;12.35;11.65;;;;;;;;;;4996435;28;20415;-51
2023/03/31 00:10:13;;;;;;;11.63;10.93;;;;;;;;;;4995961;28;20509;-50
2023/03/31 00:12:39;;;;;;;12.43;11.63;;;;;;;;;;4993503;28;20811;-48
2023/03/31 00:15:05;;;;;;;12.43;11.73;;;;;;;;;;4995509;28;20037;-51
2023/03/31 00:17:32;;;;;;;11.73;11.00;;;;;;;;;;4996723;28;20025;-50
2023/03/31 00:19:59;;;;;;;11.90;11.20;;;;;;;;;;4995335;28;20399;-49
2023/03/31 00:22:26;;;;;;;12.18;11.38;;;;;;;;;;4995480;28;20038;-49
2023/03/31 00:24:52;;;;;;;13.00;12.20;;;;;;;;;;4995224;28;20128;-49
2023/03/31 00:27:17;;;;;;;11.43;10.73;;;;;;;;;;4994957;28;20143;-52
2023/03/31 00:29:44;;;;;;;11.25;10.55;;;;;;;;;;4994701;28;20432;-52
2023/03/31 00:32:10;;;;;;;12.10;11.40;;;;;;;;;;5003655;28;20079;-51
2023/03/31 00:34:36;;;;;;;10.88;10.18;;;;;;;;;;4997580;28;20062;-50
2023/03/31 00:37:02;;;;;;;10.57;9.98;;;;;;;;;;4997745;28;20131;-52
2023/03/31 00:39:34;;;;;;;11.27;10.57;;;;;;;;;;4994057;28;20286;-49
2023/03/31 00:42:03;;;;;;;11.10;10.40;;;;;;;;;;4994827;28;20042;-52
2023/03/31 00:44:32;;;;;;;13.20;12.30;;;;;;;;;;4996425;28;20045;-52
2023/03/31 00:47:06;;;;;;;10.90;10.20;;;;;;;;;;4994066;28;20143;-48
2023/03/31 00:49:47;;;;;;;11.75;11.05;;;;;;;;;;4992122;28;20030;-50
2023/03/31 00:52:20;;;;;;;11.10;10.40;;;;;;;;;;4996096;28;20030;-48
2023/03/31 00:54:50;;;;;;;11.73;11.00;;;;;;;;;;4998148;28;20030;-51
2023/03/31 00:57:16;;;;;;;11.23;10.52;;;;;;;;;;4995470;28;20037;-49
2023/03/31 00:59:48;;;;;;;11.30;10.60;;;;;;;;;;4992974;28;20098;-49
2023/03/31 01:02:16;;;;;;;11.65;10.95;;;;;;;;;;4992517;28;20034;-48
2023/03/31 01:04:49;;;;;;;11.57;10.85;;;;;;;;;;4991273;28;20026;-48
2023/03/31 01:07:24;;;;;;;11.80;11.00;;;;;;;;;;4993640;28;20030;-48
2023/03/31 01:09:53;;;;;;;10.48;9.88;;;;;;;;;;4995907;28;20048;-50
2023/03/31 01:12:20;;;;;;;10.18;9.57;;;;;;;;;;4994016;28;20046;-50
2023/03/31 01:14:47;;;;;;;10.48;9.80;;;;;;;;;;4995926;28;20038;-48
2023/03/31 01:17:17;;;;;;;11.80;11.10;;;;;;;;;;4996429;28;20125;-50
2023/03/31 01:20:31;;;;;;;11.50;10.80;;;;;;;;;;4994927;28;20084;-50
2023/03/31 01:23:35;;;;;;;12.30;10.23;;;;;;;;;;4977015;28;20916;-48
2023/03/31 01:26:37;;;;;;;10.15;9.45;;;;;;;;;;4998604;28;20534;-52
2023/03/31 01:29:23;;;;;;;10.65;10.02;;;;;;;;;;4999896;28;20037;-50
2023/03/31 01:32:13;;;;;;;11.75;11.05;;;;;;;;;;4997364;28;20154;-47
2023/03/31 01:35:06;;;;;;;11.60;10.90;;;;;;;;;;4996801;28;20029;-52
2023/03/31 01:38:01;;;;;;;11.13;10.43;;;;;;;;;;4996480;28;20116;-51
2023/03/31 01:40:58;;;;;;;11.15;10.45;;;;;;;;;;4996326;28;20527;-48
2023/03/31 01:43:39;;;;;;;11.20;10.50;;;;;;;;;;4990630;28;20029;-50
2023/03/31 01:46:34;;;;;;;10.52;9.93;;;;;;;;;;4991483;28;20042;-52
2023/03/31 01:49:14;;;;;;;12.00;11.25;;;;;;;;;;4994969;28;20052;-50
2023/03/31 01:51:55;;;;;;;12.70;11.80;;;;;;;;;;4994124;28;20510;-50
2023/03/31 01:54:38;;;;;;;11.70;11.00;;;;;;;;;;4995579;28;20467;-49
2023/03/31 01:57:31;;;;;;;11.18;10.48;;;;;;;;;;4992131;28;20061;-50
2023/03/31 02:00:10;;;;;;;10.95;10.20;;;;;;;;;;4993712;28;20057;-52
2023/03/31 02:02:39;;;;;;;10.20;9.60;;;;;;;;;;4990763;28;20046;-49
2023/03/31 02:05:25;;;;;;;11.25;10.55;;;;;;;;;;4992595;28;20048;-52
2023/03/31 02:07:59;;;;;;;10.38;9.77;;;;;;;;;;4992950;28;20113;-48
2023/03/31 02:10:28;;;;;;;10.70;10.00;;;;;;;;;;4989476;28;20128;-51
2023/03/31 02:12:55;;;;;;;11.85;11.15;;;;;;;;;;4992525;28;20121;-51
2023/03/31 02:15:26;;;;;;;12.10;11.30;;;;;;;;;;4993204;28;20085;-51
2023/03/31 02:17:56;;;;;;;10.80;10.15;;;;;;;;;;4994670;28;20104;-49
2023/03/31 02:20:23;;;;;;;9.75;9.15;;;;;;;;;;4994030;28;20042;-50
2023/03/31 02:22:54;;;;;;;10.38;9.77;;;;;;;;;;4994078;28;20034;-49
2023/03/31 02:25:24;;;;;;;11.25;10.55;;;;;;;;;;4993400;28;20777;-49
2023/03/31 02:27:56;;;;;;;11.00;10.32;;;;;;;;;;4994311;28;20073;-50
2023/03/31 02:30:27;;;;;;;10.85;10.18;;;;;;;;;;4991875;28;20072;-51
2023/03/31 02:32:52;;;;;;;10.68;10.00;;;;;;;;;;4993591;28;20133;-47
2023/03/31 02:35:20;;;;;;;10.20;9.60;;;;;;;;;;4993222;28;20446;-48
2023/03/31 02:37:48;;;;;;;11.38;10.68;;;;;;;;;;4994540;28;20026;-50
2023/03/31 02:40:18;;;;;;;10.77;10.07;;;;;;;;;;4992773;28;20132;-52
2023/03/31 02:42:43;;;;;;;11.35;10.65;;;;;;;;;;4994562;28;20053;-49
2023/03/31 02:45:57;;;;;;;11.50;10.80;;;;;;;;;;4993471;28;20534;-50
2023/03/31 02:48:30;;;;;;;11.15;10.45;;;;;;;;;;4973481;28;20045;-50
2023/03/31 02:51:11;;;;;;;10.70;10.00;;;;;;;;;;4993665;28;20049;-48
2023/03/31 02:54:11;;;;;;;11.05;10.35;;;;;;;;;;4991752;28;20041;-48
2023/03/31 02:56:48;;;;;;;10.85;10.18;;;;;;;;;;4990588;28;20038;-48
2023/03/31 02:59:40;;;;;;;9.82;9.23;;;;;;;;;;4996388;28;20573;-47
2023/03/31 03:02:36;;;;;;;10.45;9.85;;;;;;;;;;4993365;28;20033;-47
2023/03/31 03:05:33;;;;;;;10.80;10.10;;;;;;;;;;4990922;28;20042;-48
2023/03/31 03:08:16;;;;;;;10.45;9.75;;;;;;;;;;4995623;28;20045;-48
2023/03/31 03:11:26;;;;;;;10.13;9.52;;;;;;;;;;4993856;28;20858;-53
2023/03/31 03:14:05;;;;;;;10.30;9.70;;;;;;;;;;4979994;28;20049;-52
2023/03/31 03:16:42;;;;;;;10.63;10.00;;;;;;;;;;4989276;28;20030;-48
2023/03/31 03:19:09;;;;;;;11.25;10.55;;;;;;;;;;4995506;28;20037;-50
2023/03/31 03:21:34;;;;;;;10.52;9.88;;;;;;;;;;5001692;28;20360;-49
2023/03/31 03:24:00;;;;;;;12.50;11.65;;;;;;;;;;4999027;28;20046;-51
2023/03/31 03:26:27;;;;;;;11.57;10.88;;;;;;;;;;4996337;28;20042;-51
2023/03/31 03:28:56;;;;;;;10.13;9.52;;;;;;;;;;4998550;28;20128;-50
2023/03/31 03:31:24;;;;;;;11.43;10.63;;;;;;;;;;4999146;28;20561;-49
2023/03/31 03:33:50;;;;;;;10.95;10.05;;;;;;;;;;4997925;28;20046;-50
2023/03/31 03:36:15;;;;;;;10.35;9.75;;;;;;;;;;4995072;28;20035;-51
2023/03/31 03:38:41;;;;;;;10.75;10.05;;;;;;;;;;5000274;28;20038;-52
2023/03/31 03:41:07;;;;;;;11.30;10.60;;;;;;;;;;4996906;28;20041;-49
2023/03/31 03:43:32;;;;;;;11.90;11.10;;;;;;;;;;4997160;28;20482;-50
2023/03/31 03:45:58;;;;;;;11.23;10.52;;;;;;;;;;4996080;28;20026;-49
2023/03/31 03:48:23;;;;;;;11.05;10.35;;;;;;;;;;4995498;28;20038;-51
2023/03/31 03:50:49;;;;;;;10.25;9.65;;;;;;;;;;4993947;28;20034;-52
2023/03/31 03:53:15;;;;;;;10.70;10.00;;;;;;;;;;4994880;28;20652;-49
2023/03/31 03:55:40;;;;;;;10.60;10.00;;;;;;;;;;4994429;28;20058;-51
2023/03/31 03:58:06;;;;;;;12.15;11.45;;;;;;;;;;4995075;28;20113;-52
2023/03/31 04:00:32;;;;;;;12.18;11.45;;;;;;;;;;4997040;28;20058;-52
2023/03/31 04:02:57;;;;;;;10.35;9.75;;;;;;;;;;4992950;28;20050;-49
2023/03/31 04:05:22;;;;;;;10.57;9.98;;;;;;;;;;4993648;28;20128;-52
2023/03/31 04:07:48;;;;;;;10.93;10.23;;;;;;;;;;4995971;28;20042;-49
2023/03/31 04:10:13;;;;;;;10.70;10.07;;;;;;;;;;4997015;28;20057;-48
2023/03/31 04:12:39;;;;;;;11.43;10.73;;;;;;;;;;4996498;28;20061;-50
2023/03/31 04:15:05;;;;;;;11.60;10.80;;;;;;;;;;4995755;28;20614;-50
2023/03/31 04:17:33;;;;;;;11.57;10.63;;;;;;;;;;4994511;28;20050;-49
2023/03/31 04:20:01;;;;;;;11.65;10.95;;;;;;;;;;4996222;28;20057;-49
2023/03/31 04:22:34;;;;;;;10.30;9.70;;;;;;;;;;5002464;28;20045;-49
2023/03/31 04:25:04;;;;;;;11.20;10.50;;;;;;;;;;4998144;28;20069;-48
2023/03/31 04:27:29;;;;;;;10.05;9.45;;;;;;;;;;5003575;28;20046;-47
2023/03/31 04:29:56;;;;;;;10.57;9.98;;;;;;;;;;4996227;28;20042;-48
2023/03/31 04:32:21;;;;;;;21.83;11.80;;;;;;;;;;4991036;28;20053;-50
2023/03/31 04:34:49;;;;;;;10.80;10.18;;;;;;;;;;4994120;28;20069;-49
2023/03/31 04:37:15;;;;;;;11.30;10.60;;;;;;;;;;4995935;28;20022;-50
2023/03/31 04:39:41;;;;;;;10.98;10.27;;;;;;;;;;4993054;28;20033;-50
2023/03/31 04:42:06;;;;;;;11.63;10.80;;;;;;;;;;4993563;28;20038;-51
2023/03/31 04:44:32;;;;;;;11.40;10.70;;;;;;;;;;4994167;28;20053;-52
2023/03/31 04:47:01;;;;;;;11.82;11.13;;;;;;;;;;4996338;28;20049;-53
2023/03/31 04:49:27;;;;;;;12.57;11.60;;;;;;;;;;4995012;28;20105;-50
2023/03/31 04:51:52;;;;;;;10.75;10.10;;;;;;;;;;4996423;28;20073;-51
2023/03/31 04:54:17;;;;;;;10.60;10.00;;;;;;;;;;4995605;28;20092;-49
2023/03/31 04:56:43;;;;;;;10.52;9.93;;;;;;;;;;4993708;28;20064;-51
2023/03/31 04:59:08;;;;;;;10.75;10.13;;;;;;;;;;4996760;28;20041;-52
2023/03/31 05:01:35;;;;;;;11.70;10.68;;;;;;;;;;4991632;28;20483;-50
2023/03/31 05:04:01;;;;;;;11.60;10.90;;;;;;;;;;4997826;28;20108;-50
2023/03/31 05:06:26;;;;;;;12.82;12.02;;;;;;;;;;4996619;28;20121;-47
2023/03/31 05:08:52;;;;;;;11.52;10.82;;;;;;;;;;4996015;28;20488;-49
2023/03/31 05:11:17;;;;;;;12.50;11.70;;;;;;;;;;4994516;28;20034;-47
2023/03/31 05:13:43;;;;;;;10.07;9.48;;;;;;;;;;4995836;28;20034;-49
2023/03/31 05:16:11;;;;;;;11.15;10.45;;;;;;;;;;4994331;28;20038;-49
2023/03/31 05:18:36;;;;;;;11.02;10.23;;;;;;;;;;4995453;28;20169;-48
2023/03/31 05:21:13;;;;;;;12.23;11.32;;;;;;;;;;4996755;28;20430;-50
2023/03/31 05:23:39;;;;;;;12.07;11.38;;;;;;;;;;4994994;28;20069;-48
2023/03/31 05:26:04;;;;;;;11.90;10.85;;;;;;;;;;4993462;28;20061;-49
2023/03/31 05:28:30;;;;;;;10.88;10.18;;;;;;;;;;4990655;28;20117;-47
2023/03/31 05:30:59;;;;;;;11.73;11.02;;;;;;;;;;4994215;28;20449;-49
2023/03/31 05:33:24;;;;;;;11.25;10.55;;;;;;;;;;4994312;28;20034;-51
2023/03/31 05:35:49;;;;;;;11.25;10.55;;;;;;;;;;4992914;28;20112;-49
2023/03/31 05:38:15;;;;;;;11.50;10.80;;;;;;;;;;4994715;28;20041;-50
2023/03/31 05:40:40;;;;;;;12.15;11.40;;;;;;;;;;4992669;28;20034;-48
2023/03/31 05:43:05;;;;;;;12.27;11.30;;;;;;;;;;4995464;28;20079;-49
2023/03/31 05:45:31;;;;;;;11.65;10.80;;;;;;;;;;4993543;28;20405;-51
2023/03/31 05:47:56;;;;;;;11.23;10.52;;;;;;;;;;4994371;28;20659;-48
2023/03/31 05:50:21;;;;;;;11.55;10.85;;;;;;;;;;4994251;28;20030;-50
2023/03/31 05:52:47;;;;;;;11.40;10.73;;;;;;;;;;4993493;28;20035;-49
2023/03/31 05:55:12;;;;;;;11.35;10.65;;;;;;;;;;4991311;28;20034;-48
2023/03/31 05:57:38;;;;;;;11.07;10.38;;;;;;;;;;4992443;28;20042;-51
2023/03/31 06:00:05;;;;;;;10.55;9.93;;;;;;;;;;4994368;28;20061;-51
2023/03/31 06:02:32;;;;;;;10.80;10.10;;;;;;;;;;5007261;28;20419;-49
2023/03/31 06:04:57;;;;;;;10.77;10.10;;;;;;;;;;4991967;28;20042;-49
2023/03/31 06:07:23;;;;;;;10.40;9.80;;;;;;;;;;4994180;28;20050;-50
2023/03/31 06:09:49;;;;;;;11.20;10.50;;;;;;;;;;4993625;28;20038;-50
2023/03/31 06:12:15;;;;;;;11.35;10.68;;;;;;;;;;4993546;28;20145;-53
2023/03/31 06:14:41;;;;;;;11.52;10.82;;;;;;;;;;4992387;28;20073;-51
2023/03/31 06:17:06;;;;;;;11.82;11.13;;;;;;;;;;4995229;28;20033;-51
2023/03/31 06:19:32;;;;;;;12.68;11.95;;;;;;;;;;4992638;28;20038;-58
2023/03/31 06:21:57;;;;;;;13.23;12.23;;;;;;;;;;4995667;28;20034;-57
2023/03/31 06:24:23;;;;;;;11.60;10.90;;;;;;;;;;4995122;28;20029;-56
2023/03/31 06:26:48;;;;;;;11.98;11.07;;;;;;;;;;4991719;28;20058;-58
2023/03/31 06:29:13;;;;;;;12.95;12.15;;;;;;;;;;4993853;28;20034;-58
2023/03/31 06:31:39;;;;;;;12.00;11.20;;;;;;;;;;4994263;28;20491;-58
2023/03/31 06:34:05;;;;;;;12.60;11.70;;;;;;;;;;4992616;28;20026;-63
2023/03/31 06:36:30;;;;;;;11.93;11.23;;;;;;;;;;4993285;28;20121;-59
2023/03/31 06:38:56;;;;;;;12.35;11.65;;;;;;;;;;4994346;28;20120;-62
2023/03/31 06:41:22;;;;;;;11.82;11.13;;;;;;;;;;4996129;28;20041;-60
2023/03/31 06:43:48;;;;;;;12.38;11.65;;;;;;;;;;4996502;28;20033;-66
2023/03/31 06:46:13;;;;;;;13.57;12.77;;;;;;;;;;4993524;28;20388;-57
2023/03/31 06:48:40;;;;;;;13.02;12.25;;;;;;;;;;4996354;28;20173;-59
2023/03/31 06:51:06;;;;;;;12.15;11.45;;;;;;;;;;4995269;28;20099;-58
2023/03/31 06:53:32;;;;;;;13.40;12.60;;;;;;;;;;4996569;28;20372;-59
2023/03/31 06:55:57;;;;;;;11.57;10.88;;;;;;;;;;4991278;28;20038;-58
2023/03/31 06:58:23;;;;;;;12.32;11.55;;;;;;;;;;4996169;28;20034;-58
2023/03/31 07:00:48;;;;;;;12.27;11.48;;;;;;;;;;4990754;28;20053;-58
2023/03/31 07:03:17;;;;;;;13.30;12.50;;;;;;;;;;4994811;28;20034;-62
2023/03/31 07:05:47;;;;;;;12.10;11.30;;;;;;;;;;4992072;28;20042;-58
2023/03/31 07:08:13;;;;;;;11.15;10.45;;;;;;;;;;4992518;28;20061;-58
2023/03/31 07:10:38;;;;;;;11.13;10.43;;;;;;;;;;5003782;28;20760;-58
2023/03/31 07:13:03;;;;;;;13.50;12.57;;;;;;;;;;4993644;28;20031;-57
2023/03/31 07:15:29;;;;;;;10.98;10.27;;;;;;;;;;4990721;28;20623;-58
2023/03/31 07:18:00;;;;;;;11.27;10.57;;;;;;;;;;4994596;28;20379;-58
2023/03/31 07:20:27;;;;;;;11.88;11.02;;;;;;;;;;4988694;28;20037;-57
2023/03/31 07:22:52;;;;;;;11.27;10.57;;;;;;;;;;5000010;28;20064;-58
2023/03/31 07:25:18;;;;;;;13.35;12.15;;;;;;;;;;4996363;28;20030;-56
2023/03/31 07:27:43;;;;;;;11.20;10.50;;;;;;;;;;4994775;28;20161;-58
2023/03/31 07:30:15;;;;;;;10.63;9.95;;;;;;;;;;4990281;28;20329;-57
2023/03/31 07:32:41;;;;;;;11.65;10.85;;;;;;;;;;4992153;28;20042;-57
2023/03/31 07:35:09;;;;;;;10.70;10.10;;;;;;;;;;4991364;28;20030;-57
2023/03/31 07:37:40;;;;;;;11.52;10.77;;;;;;;;;;4989574;28;20033;-58
2023/03/31 07:40:06;;;;;;;12.68;11.77;;;;;;;;;;4990597;28;20096;-57
2023/03/31 07:42:33;;;;;;;12.27;11.57;;;;;;;;;;4995189;28;20044;-56
2023/03/31 07:44:59;;;;;;;13.23;12.43;;;;;;;;;;4990324;28;20074;-54
2023/03/31 07:47:24;;;;;;;12.20;11.40;;;;;;;;;;4992043;28;20249;-56
2023/03/31 07:49:50;;;;;;;10.95;10.25;;;;;;;;;;4991041;28;20640;-56
2023/03/31 07:52:17;;;;;;;11.02;10.32;;;;;;;;;;4992243;28;20038;-56
2023/03/31 07:54:42;;;;;;;12.15;11.45;;;;;;;;;;4989696;28;20038;-56
2023/03/31 07:57:08;;;;;;;12.82;11.77;;;;;;;;;;4991908;28;20538;-57
2023/03/31 07:59:34;;;;;;;11.48;10.77;;;;;;;;;;4990895;28;20436;-57
2023/03/31 08:01:59;;;;;;;11.73;11.02;;;;;;;;;;4994116;28;20034;-57
2023/03/31 08:04:25;;;;;;;11.88;11.13;;;;;;;;;;4991658;28;20038;-58
2023/03/31 08:06:51;;;;;;;12.20;11.45;;;;;;;;;;4988115;28;20336;-57
2023/03/31 08:09:17;;;;;;;12.25;11.35;;;;;;;;;;4993503;28;20069;-57
2023/03/31 08:11:43;;;;;;;11.23;10.52;;;;;;;;;;4995174;28;20124;-57
2023/03/31 08:14:09;;;;;;;13.75;12.95;;;;;;;;;;4995454;28;20193;-56
2023/03/31 08:16:34;;;;;;;13.50;12.60;;;;;;;;;;4996584;28;20049;-57
2023/03/31 08:19:00;;;;;;;13.05;12.30;;;;;;;;;;4995598;28;20140;-58
2023/03/31 08:21:27;;;;;;;13.73;12.93;;;;;;;;;;4996381;28;20038;-57
2023/03/31 08:23:54;;;;;;;12.57;11.77;;;;;;;;;;4997256;28;20467;-57
2023/03/31 08:26:23;;;;;;;13.85;12.85;;;;;;;;;;4992966;28;20482;-57
2023/03/31 08:28:48;;;;;;;12.27;11.48;;;;;;;;;;4992470;28;20045;-57
2023/03/31 08:31:17;;;;;;;11.80;11.10;;;;;;;;;;4993449;28;20687;-58
2023/03/31 08:33:44;;;;;;;13.18;12.20;;;;;;;;;;4999267;28;20029;-59
2023/03/31 08:36:09;;;;;;;13.55;12.65;;;;;;;;;;4995279;28;20034;-57
2023/03/31 08:38:46;;;;;;;12.77;11.98;;;;;;;;;;4996377;28;20529;-58
2023/03/31 08:41:40;;;;;;;13.15;11.88;;;;;;;;;;4997443;28;20253;-57
2023/03/31 08:44:15;;;;;;;12.43;11.63;;;;;;;;;;4995241;28;20026;-60
2023/03/31 08:46:42;;;;;;;11.63;10.82;;;;;;;;;;4996725;28;20539;-55
2023/03/31 08:49:13;;;;;;;13.30;12.52;;;;;;;;;;4996100;28;20065;-56
2023/03/31 08:51:42;;;;;;;13.43;12.63;;;;;;;;;;4994068;28;20160;-58
2023/03/31 08:54:17;;;;;;;12.63;11.82;;;;;;;;;;4996830;28;20057;-57
2023/03/31 08:56:46;;;;;;;12.93;12.20;;;;;;;;;;4995020;28;20030;-60
2023/03/31 08:59:32;;;;;;;13.20;12.40;;;;;;;;;;4991830;28;20049;-58
2023/03/31 09:02:17;;;;;;;13.23;12.43;;;;;;;;;;4991865;28;20033;-56
2023/03/31 09:04:50;;;;;;;12.25;11.55;;;;;;;;;;4992623;28;20030;-58
2023/03/31 09:07:47;;;;;;;12.43;11.73;;;;;;;;;;4995560;28;20038;-57
2023/03/31 09:10:50;;;;;;;12.55;11.45;;;;;;;;;;5009404;28;20065;-58
2023/03/31 09:13:37;;;;;;;11.50;10.80;;;;;;;;;;4984049;28;20654;-57
2023/03/31 09:16:21;;;;;;;11.60;10.90;;;;;;;;;;4998751;28;20033;-57
2023/03/31 09:18:47;;;;;;;12.90;12.10;;;;;;;;;;4994811;28;20427;-57
2023/03/31 09:21:21;;;;;;;11.90;11.20;;;;;;;;;;4994724;28;20037;-56
2023/03/31 09:24:00;;;;;;;11.52;10.82;;;;;;;;;;5001341;28;20030;-57
2023/03/31 09:26:42;;;;;;;11.40;10.70;;;;;;;;;;4993309;28;20372;-56
2023/03/31 09:29:18;;;;;;;11.52;10.82;;;;;;;;;;4995981;28;20052;-57
2023/03/31 09:31:45;;;;;;;12.38;11.57;;;;;;;;;;4995469;28;20431;-58
2023/03/31 09:34:27;;;;;;;12.13;11.43;;;;;;;;;;4997286;28;20034;-56
2023/03/31 09:36:52;;;;;;;11.07;10.38;;;;;;;;;;4993567;28;20092;-57
2023/03/31 09:39:18;;;;;;;12.15;11.35;;;;;;;;;;4995035;28;20034;-56
2023/03/31 09:41:46;;;;;;;12.68;11.90;;;;;;;;;;4993218;28;20038;-57
2023/03/31 09:44:21;;;;;;;11.45;10.73;;;;;;;;;;4992721;28;20034;-57
2023/03/31 09:46:47;;;;;;;12.25;11.18;;;;;;;;;;4994672;28;20033;-57
2023/03/31 09:49:17;;;;;;;11.07;10.40;;;;;;;;;;4994971;28;20042;-58
2023/03/31 09:51:51;;;;;;;10.75;10.13;;;;;;;;;;4993791;28;20534;-56
2023/03/31 09:54:24;;;;;;;11.23;10.52;;;;;;;;;;4995924;28;20038;-57
2023/03/31 09:56:54;;;;;;;11.82;11.00;;;;;;;;;;4993893;28;20060;-56
2023/03/31 09:59:37;;;;;;;10.50;9.90;;;;;;;;;;4992988;28;20376;-56
2023/03/31 10:02:17;;;;;;;11.52;10.82;;;;;;;;;;4996737;28;20494;-57
2023/03/31 10:04:45;;;;;;;11.32;10.55;;;;;;;;;;4994304;28;20042;-57
2023/03/31 10:07:11;;;;;;;11.98;11.27;;;;;;;;;;4998798;28;20540;-57
2023/03/31 10:09:37;;;;;;;11.48;10.77;;;;;;;;;;4990646;28;20097;-58
2023/03/31 10:12:07;;;;;;;12.55;11.65;;;;;;;;;;4991606;28;20111;-57
2023/03/31 10:14:44;;;;;;;11.27;10.43;;;;;;;;;;4993369;28;20097;-58
2023/03/31 10:17:21;;;;;;;11.23;10.52;;;;;;;;;;4994502;28;20281;-58
2023/03/31 10:19:54;;;;;;;10.45;9.85;;;;;;;;;;4993202;28;20362;-59
2023/03/31 10:22:19;;;;;;;11.35;10.65;;;;;;;;;;4992044;28;20271;-58
2023/03/31 10:24:45;;;;;;;13.32;12.43;;;;;;;;;;5009116;28;20042;-58
2023/03/31 10:27:21;;;;;;;10.30;9.70;;;;;;;;;;4993365;28;20041;-58
2023/03/31 10:29:50;;;;;;;11.85;11.15;;;;;;;;;;4994676;28;20041;-58
2023/03/31 10:32:30;;;;;;;10.82;10.18;;;;;;;;;;4993678;28;20042;-58
2023/03/31 10:34:58;;;;;;;11.25;10.48;;;;;;;;;;4994876;28;20128;-58
2023/03/31 10:37:28;;;;;;;11.05;10.35;;;;;;;;;;4992291;28;20037;-58
2023/03/31 10:40:16;;;;;;;10.82;10.13;;;;;;;;;;4993419;28;20451;-57
2023/03/31 10:42:45;;;;;;;11.10;10.40;;;;;;;;;;4993172;28;20030;-58
2023/03/31 10:45:20;;;;;;;12.20;11.50;;;;;;;;;;4995322;28;20053;-58
2023/03/31 10:47:48;;;;;;;11.65;10.95;;;;;;;;;;4993572;28;20088;-58
2023/03/31 10:50:15;;;;;;;11.45;10.75;;;;;;;;;;4992076;28;20030;-58
2023/03/31 10:52:46;;;;;;;10.20;9.60;;;;;;;;;;5009308;28;20034;-58
2023/03/31 10:55:20;;;;;;;10.25;9.65;;;;;;;;;;4994052;28;20397;-58
2023/03/31 10:58:00;;;;;;;11.88;10.85;;;;;;;;;;4992639;28;20064;-60
2023/03/31 11:00:39;;;;;;;10.45;9.82;;;;;;;;;;4992336;28;20381;-58
2023/03/31 11:03:22;;;;;;;10.75;10.10;;;;;;;;;;4991899;28;20042;-58
2023/03/31 11:06:12;;;;;;;11.65;10.80;;;;;;;;;;4992953;28;20416;-58
2023/03/31 11:08:40;;;;;;;11.13;10.38;;;;;;;;;;4990644;28;20101;-58
2023/03/31 11:11:44;;;;;;;9.63;9.02;;;;;;;;;;4991811;28;20042;-58
2023/03/31 11:14:21;;;;;;;10.25;9.65;;;;;;;;;;4991412;28;20396;-57
2023/03/31 11:16:55;;;;;;;10.07;9.48;;;;;;;;;;4993584;28;20049;-57
2023/03/31 11:19:56;;;;;;;10.90;10.00;;;;;;;;;;5008492;28;20065;-57
2023/03/31 11:22:34;;;;;;;9.90;9.30;;;;;;;;;;4990137;28;20120;-55
2023/03/31 11:25:21;;;;;;;12.27;11.48;;;;;;;;;;4993209;28;20030;-58
2023/03/31 11:28:15;;;;;;;11.38;10.68;;;;;;;;;;4994075;28;20352;-59
2023/03/31 11:31:02;;;;;;;11.63;10.93;;;;;;;;;;4991710;28;20046;-58
2023/03/31 11:33:45;;;;;;;12.65;11.85;;;;;;;;;;4994264;28;20939;-58
2023/03/31 11:36:27;;;;;;;12.68;11.68;;;;;;;;;;4992923;28;20462;-58
2023/03/31 11:39:30;;;;;;;12.45;11.75;;;;;;;;;;4992430;28;20133;-58
2023/03/31 11:42:04;;;;;;;12.80;12.07;;;;;;;;;;4992616;28;20077;-57
2023/03/31 11:44:39;;;;;;;12.65;11.95;;;;;;;;;;4997527;28;20350;-58
2023/03/31 11:47:11;;;;;;;12.50;11.70;;;;;;;;;;4992895;28;20164;-57
2023/03/31 11:49:55;;;;;;;12.68;11.95;;;;;;;;;;4993919;28;20081;-58
2023/03/31 11:52:28;;;;;;;17.35;16.35;;;;;;;;;;4993356;28;20172;-58
2023/03/31 11:55:16;;;;;;;18.85;17.35;;;;;;;;;;4994952;28;20045;-58
2023/03/31 11:58:01;;;;;;;18.75;17.45;;;;;;;;;;4994214;28;20046;-59
2023/03/31 12:00:41;;;;;;;17.25;16.30;;;;;;;;;;4996092;28;20471;-58
2023/03/31 12:03:26;;;;;;;17.00;16.02;;;;;;;;;;4992476;28;20037;-59
2023/03/31 12:06:01;;;;;;;17.00;16.02;;;;;;;;;;4994998;28;20109;-58
2023/03/31 12:08:36;;;;;;;16.13;15.18;;;;;;;;;;4994364;28;20414;-58
2023/03/31 12:11:05;;;;;;;16.30;15.05;;;;;;;;;;4992638;28;20518;-58
2023/03/31 12:13:39;;;;;;;14.15;13.35;;;;;;;;;;4997720;28;20034;-57
2023/03/31 12:16:08;;;;;;;13.93;13.13;;;;;;;;;;4996633;28;20073;-57
2023/03/31 12:18:45;;;;;;;14.55;13.75;;;;;;;;;;4995606;28;20038;-57
2023/03/31 12:21:10;;;;;;;14.63;13.77;;;;;;;;;;4995434;28;20030;-57
2023/03/31 12:23:44;;;;;;;15.50;14.60;;;;;;;;;;4994545;28;20042;-58
2023/03/31 12:26:26;;;;;;;16.23;15.30;;;;;;;;;;4993871;28;20026;-58
2023/03/31 12:28:59;;;;;;;16.38;15.45;;;;;;;;;;4990882;28;20092;-57
2023/03/31 12:31:27;;;;;;;18.05;16.85;;;;;;;;;;4994240;28;20238;-56
2023/03/31 12:33:58;;;;;;;13.45;12.65;;;;;;;;;;4992430;28;20081;-57
2023/03/31 12:36:40;;;;;;;12.20;11.50;;;;;;;;;;4993142;28;20030;-58
2023/03/31 12:39:18;;;;;;;13.15;12.35;;;;;;;;;;4995343;28;20048;-58
2023/03/31 12:42:18;;;;;;;14.13;13.32;;;;;;;;;;4994621;28;20052;-57
2023/03/31 12:45:23;;;;;;;14.65;13.75;;;;;;;;;;4996749;28;20587;-58
2023/03/31 12:48:25;;;;;;;17.13;16.17;;;;;;;;;;4995147;28;20384;-58
2023/03/31 12:51:28;;;;;;;19.52;18.45;;;;;;;;;;4996391;28;20041;-58
2023/03/31 12:54:01;;;;;;;20.30;19.20;;;;;;;;;;4994497;28;20037;-58
2023/03/31 12:56:27;;;;;;;21.23;20.05;;;;;;;;;;4996934;28;20034;-57
2023/03/31 12:58:52;;;;;;;20.77;19.67;;;;;;;;;;4994328;28;20115;-58
2023/03/31 13:01:22;;;;;;;22.02;20.67;;;;;;;;;;4994050;28;20038;-58
2023/03/31 13:04:11;;;;;;;19.77;18.65;;;;;;;;;;4993823;28;20053;-58
2023/03/31 13:06:36;;;;;;;17.10;16.10;;;;;;;;;;4993225;28;20095;-57
2023/03/31 13:09:26;;;;;;;19.63;18.52;;;;;;;;;;4995149;28;20030;-58
2023/03/31 13:11:51;;;;;;;25.75;24.40;;;;;;;;;;4992094;28;20097;-57
2023/03/31 13:14:29;;;;;;;32.35;30.67;;;;;;;;;;4996470;28;20049;-58
2023/03/31 13:17:34;;;;;;;35.35;33.53;;;;;;;;;;4991495;28;20034;-59
2023/03/31 13:20:36;;;;;;;35.17;33.38;;;;;;;;;;4982354;28;20045;-57
2023/03/31 13:23:10;;;;;;;17.33;16.38;;;;;;;;;;4993385;28;20077;-58
2023/03/31 13:25:41;;;;;;;17.55;16.55;;;;;;;;;;4993211;28;20026;-58
2023/03/31 13:28:20;;;;;;;15.85;14.95;;;;;;;;;;5009797;28;20518;-57
2023/03/31 13:30:48;;;;;;;18.27;17.27;;;;;;;;;;4992251;28;20034;-58
2023/03/31 13:33:16;;;;;;;18.73;17.73;;;;;;;;;;4995518;28;20457;-58
2023/03/31 13:35:47;;;;;;;18.98;17.98;;;;;;;;;;4989232;28;20104;-57
2023/03/31 13:38:30;;;;;;;16.60;15.70;;;;;;;;;;4991596;28;20038;-58
2023/03/31 13:41:23;;;;;;;14.30;13.50;;;;;;;;;;4995305;28;20037;-57
2023/03/31 13:43:54;;;;;;;13.35;12.55;;;;;;;;;;4991834;28;20049;-56
2023/03/31 13:46:33;;;;;;;11.98;11.27;;;;;;;;;;4993716;28;20038;-55
2023/03/31 13:49:35;;;;;;;12.05;11.35;;;;;;;;;;4992729;28;20038;-55
2023/03/31 13:52:03;;;;;;;10.85;10.20;;;;;;;;;;4993306;28;20133;-57
2023/03/31 13:54:54;;;;;;;10.85;10.20;;;;;;;;;;4994228;28;20038;-58
2023/03/31 13:57:38;;;;;;;10.13;9.52;;;;;;;;;;4992756;28;20579;-57
2023/03/31 14:00:20;;;;;;;11.00;10.30;;;;;;;;;;5010754;28;20091;-56
2023/03/31 14:03:10;;;;;;;10.38;9.77;;;;;;;;;;4995315;28;20026;-58
2023/03/31 14:05:42;;;;;;;10.48;9.88;;;;;;;;;;4990524;28;20747;-58
2023/03/31 14:08:11;;;;;;;11.35;10.65;;;;;;;;;;4991089;28;20045;-57
2023/03/31 14:10:39;;;;;;;10.73;10.07;;;;;;;;;;4990749;28;20057;-59
2023/03/31 14:13:12;;;;;;;11.77;11.07;;;;;;;;;;4991441;28;20049;-58
2023/03/31 14:15:41;;;;;;;12.13;11.43;;;;;;;;;;4995071;28;20038;-59
2023/03/31 14:18:09;;;;;;;12.07;11.38;;;;;;;;;;4993713;28;20108;-58
2023/03/31 14:20:56;;;;;;;13.43;12.63;;;;;;;;;;4992957;28;20496;-59
2023/03/31 14:23:38;;;;;;;13.45;12.65;;;;;;;;;;4995491;28;20495;-59
2023/03/31 14:26:12;;;;;;;14.57;13.70;;;;;;;;;;4991970;28;20415;-60
2023/03/31 14:28:59;;;;;;;16.52;15.63;;;;;;;;;;4992159;28;20800;-59
2023/03/31 14:31:40;;;;;;;15.88;14.98;;;;;;;;;;4991040;28;20038;-58
2023/03/31 14:34:12;;;;;;;17.00;16.10;;;;;;;;;;4989519;28;20023;-58
2023/03/31 14:36:40;;;;;;;16.48;15.57;;;;;;;;;;4988998;28;20583;-58
2023/03/31 14:39:10;;;;;;;18.15;17.15;;;;;;;;;;4994033;28;20134;-59
2023/03/31 14:41:36;;;;;;;19.95;18.85;;;;;;;;;;4991964;28;20515;-59
2023/03/31 14:44:05;;;;;;;18.90;17.85;;;;;;;;;;4991394;28;20712;-59
2023/03/31 14:46:35;;;;;;;20.15;19.05;;;;;;;;;;4991887;28;20026;-58
2023/03/31 14:49:14;;;;;;;20.10;19.00;;;;;;;;;;4992618;28;20042;-59
2023/03/31 14:51:42;;;;;;;22.20;21.02;;;;;;;;;;4991681;28;20034;-59